Time;durP1;ratioP1;P1;durP2;ratioP2;P2;SDS_P1;SDS_P2;PMS_P1;PMS_P2;Temp;Humidity;BMP_temperature;BMP_pressure;BME280_temperature;BME280_humidity;BME280_pressure;Samples;Min_cycle;Max_cycle;Signal;HPM_P1;HPM_P2
2021/10/12 00:01:21;;;;;;;14.38;10.55;;;;;;;13.91;100.00;100122.19;5008602;28;20030;-68
2021/10/12 00:03:46;;;;;;;15.90;9.43;;;;;;;13.37;100.00;100030.38;5007796;28;20535;-68
2021/10/12 00:06:12;;;;;;;15.43;8.27;;;;;;;13.74;100.00;100094.22;5010548;28;20061;-68
2021/10/12 00:08:40;;;;;;;16.77;9.48;;;;;;;13.79;100.00;100106.41;5008424;28;20073;-68
2021/10/12 00:11:06;;;;;;;11.75;9.57;;;;;;;13.67;100.00;100092.38;5008882;28;20463;-67
2021/10/12 00:13:33;;;;;;;14.77;10.15;;;;;;;13.61;100.00;100091.34;5009465;28;20022;-67
2021/10/12 00:15:59;;;;;;;13.95;10.05;;;;;;;13.47;100.00;100068.66;5010581;28;20020;-67
2021/10/12 00:18:24;;;;;;;14.38;9.40;;;;;;;13.68;100.00;100103.59;5009435;28;20101;-67
2021/10/12 00:20:51;;;;;;;16.63;10.40;;;;;;;13.58;100.00;100084.41;5007872;28;20476;-68
2021/10/12 00:23:16;;;;;;;14.43;10.27;;;;;;;13.64;100.00;100086.25;5008756;28;20071;-68
2021/10/12 00:25:42;;;;;;;13.10;10.68;;;;;;;13.62;100.00;100077.53;5007384;28;20026;-67
2021/10/12 00:28:07;;;;;;;18.02;10.95;;;;;;;13.11;100.00;99991.91;5009832;28;20021;-67
2021/10/12 00:30:33;;;;;;;16.13;10.13;;;;;;;13.65;100.00;100080.22;5009159;28;20026;-67
2021/10/12 00:32:58;;;;;;;14.75;10.25;;;;;;;13.65;100.00;100067.25;4990333;28;20025;-67
2021/10/12 00:35:24;;;;;;;13.27;10.43;;;;;;;13.76;100.00;100089.06;5009389;28;20534;-68
2021/10/12 00:37:50;;;;;;;17.02;11.63;;;;;;;13.21;100.00;99990.38;5007622;28;20018;-67
2021/10/12 00:40:15;;;;;;;16.00;11.07;;;;;;;13.61;100.00;100074.09;5008431;28;20022;-67
2021/10/12 00:42:41;;;;;;;16.65;11.30;;;;;;;13.45;100.00;100066.88;5006723;28;20374;-67
2021/10/12 00:45:10;;;;;;;16.27;11.45;;;;;;;13.54;100.00;100096.44;4991799;28;20049;-68
2021/10/12 00:47:35;;;;;;;15.60;11.03;;;;;;;13.57;100.00;100103.38;5008223;28;20014;-68
2021/10/12 00:50:01;;;;;;;16.45;12.32;;;;;;;13.44;100.00;100071.19;5009735;28;20083;-67
2021/10/12 00:52:26;;;;;;;14.15;10.57;;;;;;;13.59;100.00;100093.94;5008362;28;20025;-68
2021/10/12 00:54:52;;;;;;;14.30;10.90;;;;;;;13.68;100.00;100104.50;5009942;28;20018;-67
2021/10/12 00:57:18;;;;;;;15.40;9.75;;;;;;;12.97;100.00;99978.66;5009888;28;20045;-68
2021/10/12 00:59:45;;;;;;;14.55;9.30;;;;;;;13.66;100.00;100069.84;5007530;28;20018;-68
2021/10/12 01:02:11;;;;;;;11.10;8.90;;;;;;;13.82;100.00;100101.25;4999362;28;20397;-67
2021/10/12 01:04:38;;;;;;;14.40;9.48;;;;;;;13.73;100.00;100094.19;5011195;28;20037;-67
2021/10/12 01:07:03;;;;;;;16.88;9.75;;;;;;;13.70;100.00;100082.03;5010864;28;20050;-68
2021/10/12 01:09:29;;;;;;;12.82;10.38;;;;;;;13.43;100.00;100049.56;5011192;28;20080;-68
2021/10/12 01:11:54;;;;;;;16.25;10.50;;;;;;;13.51;100.00;100051.44;4993605;28;20057;-68
2021/10/12 01:14:20;;;;;;;14.65;10.25;;;;;;;13.66;100.00;100067.25;5010371;28;20109;-68
2021/10/12 01:16:45;;;;;;;14.63;11.55;;;;;;;13.66;100.00;100053.44;5011519;28;20022;-68
2021/10/12 01:19:11;;;;;;;16.88;11.35;;;;;;;13.84;100.00;100065.84;5015034;28;20130;-68
2021/10/12 01:21:39;;;;;;;17.35;12.60;;;;;;;13.88;100.00;100059.84;4996310;28;20117;-66
2021/10/12 01:24:05;;;;;;;13.02;10.80;;;;;;;13.75;100.00;100041.47;5014851;28;20022;-67
2021/10/12 01:26:32;;;;;;;17.27;12.70;;;;;;;13.90;100.00;100069.41;5014824;28;20061;-69
2021/10/12 01:28:58;;;;;;;16.45;13.77;;;;;;;13.82;100.00;100049.34;5014414;28;20125;-69
2021/10/12 01:31:26;;;;;;;23.08;14.60;;;;;;;13.95;100.00;100059.09;5014818;28;20104;-69
2021/10/12 01:33:52;;;;;;;16.00;12.57;;;;;;;13.94;100.00;100053.91;5014020;28;20113;-68
2021/10/12 01:36:18;;;;;;;18.05;13.25;;;;;;;13.76;100.00;100031.97;5005850;28;20027;-68
2021/10/12 01:38:44;;;;;;;12.98;11.07;;;;;;;13.93;100.00;100063.38;5003284;28;20022;-69
2021/10/12 01:41:10;;;;;;;13.40;10.82;;;;;;;13.95;100.00;100063.44;4999326;28;20109;-69
2021/10/12 01:43:36;;;;;;;13.85;10.98;;;;;;;13.61;100.00;100011.84;5002059;28;20052;-69
2021/10/12 01:46:03;;;;;;;11.23;9.63;;;;;;;13.89;100.00;100057.28;4999941;28;20403;-68
2021/10/12 01:48:29;;;;;;;17.02;10.00;;;;;;;13.88;100.00;100050.34;4957124;28;20096;-69
2021/10/12 01:50:54;;;;;;;12.93;9.57;;;;;;;13.87;100.00;100050.34;5001464;28;20435;-69
2021/10/12 01:53:20;;;;;;;12.10;9.57;;;;;;;13.79;100.00;100046.72;4998938;28;20019;-69
2021/10/12 01:55:45;;;;;;;11.25;9.45;;;;;;;13.73;100.00;100045.78;5002809;28;20022;-69
2021/10/12 01:58:11;;;;;;;13.52;9.88;;;;;;;13.14;100.00;99952.22;5001256;28;20452;-69
2021/10/12 02:00:37;;;;;;;12.68;10.13;;;;;;;13.65;100.00;100042.16;4943860;28;20164;-69
2021/10/12 02:03:02;;;;;;;13.38;10.00;;;;;;;13.66;100.00;100036.13;5009170;28;20083;-69
2021/10/12 02:05:28;;;;;;;15.32;11.48;;;;;;;13.67;100.00;100039.59;5014165;28;20018;-68
2021/10/12 02:07:54;;;;;;;21.00;13.70;;;;;;;13.67;100.00;100037.88;5013821;28;20590;-69
2021/10/12 02:10:19;;;;;;;23.48;16.08;;;;;;;13.72;100.00;100030.16;5014130;28;20018;-69
2021/10/12 02:12:46;;;;;;;23.70;15.98;;;;;;;13.62;100.00;100013.59;5013516;28;20030;-68
2021/10/12 02:15:12;;;;;;;30.23;18.20;;;;;;;13.78;100.00;100037.19;5013750;28;20437;-69
2021/10/12 02:17:38;;;;;;;31.20;19.75;;;;;;;13.79;100.00;100021.63;5013801;28;20025;-69
2021/10/12 02:20:06;;;;;;;25.45;18.13;;;;;;;13.82;100.00;100015.63;5013859;28;20025;-68
2021/10/12 02:22:32;;;;;;;26.17;19.02;;;;;;;13.43;100.00;99939.78;5013823;28;20108;-67
2021/10/12 02:24:57;;;;;;;28.45;18.90;;;;;;;13.77;100.00;100002.59;5013965;28;20212;-67
2021/10/12 02:27:23;;;;;;;25.58;18.38;;;;;;;13.30;100.00;99917.06;5013440;28;20021;-67
2021/10/12 02:29:49;;;;;;;25.00;19.23;;;;;;;13.38;100.00;99929.34;5013580;28;20101;-68
2021/10/12 02:32:16;;;;;;;26.98;18.55;;;;;;;13.69;100.00;99973.91;5013420;28;20482;-69
2021/10/12 02:34:42;;;;;;;27.27;18.25;;;;;;;13.80;100.00;99997.44;5013466;28;20024;-69
2021/10/12 02:37:07;;;;;;;28.70;17.88;;;;;;;13.82;100.00;100003.53;5013295;28;20031;-69
2021/10/12 02:39:33;;;;;;;24.98;18.15;;;;;;;13.83;100.00;100005.28;5012825;28;20018;-69
2021/10/12 02:41:59;;;;;;;28.77;18.65;;;;;;;13.82;100.00;100007.84;5010012;28;20068;-69
2021/10/12 02:44:24;;;;;;;25.98;18.83;;;;;;;13.89;100.00;100012.28;5008399;28;20133;-69
2021/10/12 02:46:50;;;;;;;33.00;20.23;;;;;;;13.83;100.00;100010.47;5011043;28;20428;-68
2021/10/12 02:49:16;;;;;;;31.27;20.00;;;;;;;13.58;100.00;100002.28;4978222;28;20033;-69
2021/10/12 02:51:41;;;;;;;43.03;18.60;;;;;;;13.36;100.00;99966.44;5010985;28;20018;-69
2021/10/12 02:54:07;;;;;;;37.90;18.60;;;;;;;13.02;100.00;99893.25;5010043;28;20032;-69
2021/10/12 02:56:32;;;;;;;31.52;18.83;;;;;;;13.55;100.00;99984.06;5004123;28;20365;-69
2021/10/12 02:58:57;;;;;;;23.73;15.82;;;;;;;13.43;100.00;99945.84;5008354;28;20056;-69
2021/10/12 03:01:23;;;;;;;26.42;19.63;;;;;;;13.64;100.00;99975.56;5010306;28;20072;-68
2021/10/12 03:03:48;;;;;;;31.98;22.17;;;;;;;13.67;100.00;99972.16;5010238;28;20013;-68
2021/10/12 03:06:14;;;;;;;27.25;19.02;;;;;;;13.71;100.00;99968.78;5009335;28;20029;-67
2021/10/12 03:08:40;;;;;;;31.35;22.67;;;;;;;13.70;100.00;99965.28;5010733;28;20013;-68
2021/10/12 03:11:06;;;;;;;22.35;16.95;;;;;;;13.64;100.00;99967.78;5010723;28;20033;-69
2021/10/12 03:13:31;;;;;;;23.67;15.57;;;;;;;13.69;100.00;99968.72;5008780;28;20383;-68
2021/10/12 03:15:57;;;;;;;22.75;16.90;;;;;;;13.80;100.00;99981.03;5009793;28;20026;-68
2021/10/12 03:18:22;;;;;;;23.80;16.30;;;;;;;13.86;100.00;99981.97;5008172;28;20019;-69
2021/10/12 03:20:48;;;;;;;21.48;14.80;;;;;;;13.83;100.00;99984.53;5010074;28;20705;-68
2021/10/12 03:23:13;;;;;;;19.52;14.80;;;;;;;13.58;100.00;99976.34;4942915;28;20038;-69
2021/10/12 03:25:39;;;;;;;39.17;18.38;;;;;;;13.52;100.00;99983.13;5010677;28;20028;-69
2021/10/12 03:28:05;;;;;;;39.80;17.92;;;;;;;13.41;100.00;99962.22;4992323;28;20466;-69
2021/10/12 03:30:31;;;;;;;37.88;16.77;;;;;;;13.48;100.00;99952.81;4975403;28;20036;-69
2021/10/12 03:32:56;;;;;;;31.55;16.75;;;;;;;13.65;100.00;99958.31;4958060;28;20069;-69
2021/10/12 03:35:35;;;;;;;28.95;14.75;;;;;;;13.75;100.00;99955.84;5006113;28;20022;-69
2021/10/12 03:38:02;;;;;;;23.60;12.55;;;;;;;13.85;100.00;99945.63;5009577;28;20014;-70
2021/10/12 03:40:28;;;;;;;22.55;11.15;;;;;;;13.75;100.00;99918.69;5007255;28;20026;-69
2021/10/12 03:42:54;;;;;;;20.70;11.70;;;;;;;13.94;100.00;99937.97;5009682;28;20053;-69
2021/10/12 03:45:19;;;;;;;19.27;8.57;;;;;;;13.96;100.00;99927.63;5009385;28;20073;-68
2021/10/12 03:47:45;;;;;;;11.27;6.90;;;;;;;13.93;100.00;99923.25;5011006;28;20076;-68
2021/10/12 03:50:10;;;;;;;19.50;7.80;;;;;;;13.91;100.00;99919.78;5011130;28;20018;-68
2021/10/12 03:52:36;;;;;;;41.22;9.77;;;;;;;13.95;100.00;99913.78;4990786;28;20109;-68
2021/10/12 03:55:02;;;;;;;32.38;15.13;;;;;;;13.90;100.00;99899.88;5010236;28;20435;-68
2021/10/12 03:57:27;;;;;;;18.75;14.43;;;;;;;13.85;100.00;99909.31;5009915;28;20064;-68
2021/10/12 03:59:53;;;;;;;14.23;9.88;;;;;;;13.71;100.00;99914.31;5011373;28;20024;-68
2021/10/12 04:02:18;;;;;;;8.77;6.00;;;;;;;13.19;100.00;99821.84;5006980;28;20044;-68
2021/10/12 04:04:44;;;;;;;11.23;6.57;;;;;;;13.62;100.00;99901.19;5009489;28;20387;-68
2021/10/12 04:07:09;;;;;;;9.73;6.97;;;;;;;13.69;100.00;99898.69;5010893;28;20034;-68
2021/10/12 04:09:35;;;;;;;9.10;5.78;;;;;;;13.75;100.00;99898.78;5009555;28;20464;-68
2021/10/12 04:12:00;;;;;;;9.25;4.93;;;;;;;13.77;100.00;99892.75;5007767;28;20022;-68
2021/10/12 04:14:25;;;;;;;8.93;3.70;;;;;;;13.81;100.00;99894.56;5008992;28;20121;-68
2021/10/12 04:16:51;;;;;;;8.55;3.97;;;;;;;13.74;100.00;99865.94;5007975;28;20439;-68
2021/10/12 04:19:16;;;;;;;7.72;2.92;;;;;;;13.39;100.00;99798.84;4945499;28;20447;-68
2021/10/12 04:21:42;;;;;;;3.72;2.78;;;;;;;13.91;100.00;99878.25;4991352;28;20046;-67
2021/10/12 04:24:07;;;;;;;2.60;2.17;;;;;;;13.93;100.00;99868.75;5010316;28;20030;-68
2021/10/12 04:26:33;;;;;;;3.38;2.60;;;;;;;13.93;100.00;99858.38;5009180;28;20061;-68
2021/10/12 04:28:59;;;;;;;3.30;1.90;;;;;;;13.50;100.00;99767.03;5007306;28;20014;-67
2021/10/12 04:31:24;;;;;;;2.22;1.90;;;;;;;13.96;100.00;99844.59;5008488;28;20026;-68
2021/10/12 04:33:50;;;;;;;2.63;1.90;;;;;;;13.86;100.00;99828.88;5006959;28;20095;-68
2021/10/12 04:36:15;;;;;;;2.28;1.80;;;;;;;13.94;100.00;99849.75;5009685;28;20046;-68
2021/10/12 04:38:41;;;;;;;7.03;2.00;;;;;;;13.99;100.00;99850.66;5008950;28;20029;-68
2021/10/12 04:41:07;;;;;;;14.60;4.45;;;;;;;13.98;100.00;99848.94;5010352;28;20026;-67
2021/10/12 04:43:33;;;;;;;59.17;41.67;;;;;;;13.37;100.00;99755.56;5009286;28;20071;-67
2021/10/12 04:45:59;;;;;;;46.72;34.63;;;;;;;13.89;100.00;99851.41;5006945;28;20049;-68
2021/10/12 04:48:24;;;;;;;18.65;14.38;;;;;;;13.77;100.00;99841.75;5011556;28;20022;-69
2021/10/12 04:50:50;;;;;;;16.20;14.43;;;;;;;13.60;100.00;99833.72;5012191;28;20124;-69
2021/10/12 04:53:16;;;;;;;7.57;6.65;;;;;;;13.74;100.00;99849.47;5015159;28;20531;-68
2021/10/12 04:55:42;;;;;;;8.25;7.32;;;;;;;13.63;100.00;99836.34;5015384;28;20153;-68
2021/10/12 04:58:10;;;;;;;6.50;5.72;;;;;;;13.23;100.00;99778.69;5015389;28;20025;-68
2021/10/12 05:00:37;;;;;;;8.55;6.82;;;;;;;13.61;100.00;99839.78;5015558;28;20041;-69
2021/10/12 05:03:02;;;;;;;9.55;8.27;;;;;;;13.56;100.00;99842.31;5015228;28;20108;-69
2021/10/12 05:05:28;;;;;;;12.00;10.75;;;;;;;13.46;100.00;99830.03;5014047;28;20084;-68
2021/10/12 05:07:54;;;;;;;12.80;11.23;;;;;;;13.57;100.00;99841.44;5015267;28;20115;-68
2021/10/12 05:10:19;;;;;;;12.73;11.05;;;;;;;13.51;100.00;99836.19;5015397;28;20034;-68
2021/10/12 05:12:45;;;;;;;12.52;11.00;;;;;;;13.48;100.00;99843.91;5015165;28;20101;-68
2021/10/12 05:15:10;;;;;;;14.95;12.65;;;;;;;13.43;100.00;99836.94;5015039;28;20104;-68
2021/10/12 05:17:38;;;;;;;14.30;12.80;;;;;;;13.45;100.00;99831.78;5015501;28;20108;-68
2021/10/12 05:20:04;;;;;;;17.48;13.63;;;;;;;13.45;100.00;99824.00;5015027;28;20506;-68
2021/10/12 05:22:31;;;;;;;13.13;11.27;;;;;;;13.42;100.00;99822.22;5014951;28;20022;-68
2021/10/12 05:24:57;;;;;;;12.32;10.77;;;;;;;13.47;100.00;99824.91;5014824;28;20093;-68
2021/10/12 05:27:23;;;;;;;10.65;9.48;;;;;;;13.47;100.00;99821.41;4993665;28;20498;-68
2021/10/12 05:29:48;;;;;;;11.38;8.50;;;;;;;13.53;100.00;99813.72;5014771;28;20037;-68
2021/10/12 05:32:14;;;;;;;9.60;8.48;;;;;;;13.54;100.00;99805.97;5014934;28;20109;-68
2021/10/12 05:34:40;;;;;;;9.60;8.63;;;;;;;13.49;100.00;99799.84;5014521;28;20025;-69
2021/10/12 05:37:05;;;;;;;10.07;7.32;;;;;;;13.45;100.00;99797.22;5014703;28;20025;-68
2021/10/12 05:39:30;;;;;;;8.38;7.47;;;;;;;13.43;100.00;99782.50;5014798;28;20436;-68
2021/10/12 05:41:56;;;;;;;10.13;7.97;;;;;;;13.31;100.00;99766.72;5014826;28;20486;-68
2021/10/12 05:44:22;;;;;;;8.07;7.28;;;;;;;13.43;100.00;99784.19;5014387;28;20040;-68
2021/10/12 05:46:47;;;;;;;7.63;6.93;;;;;;;13.39;100.00;99774.66;5014692;28;20461;-68
2021/10/12 05:49:13;;;;;;;9.52;5.63;;;;;;;13.41;100.00;99783.31;4980649;28;20022;-68
2021/10/12 05:51:41;;;;;;;6.03;5.28;;;;;;;12.83;100.00;99680.50;5014587;28;20026;-68
2021/10/12 05:54:07;;;;;;;6.50;5.15;;;;;;;13.41;100.00;99784.19;5014502;28;20068;-69
2021/10/12 05:56:42;;;;;;;5.35;4.22;;;;;;;13.44;100.00;99780.75;5014393;28;20046;-69
2021/10/12 05:59:08;;;;;;;6.20;4.95;;;;;;;13.49;100.00;99791.22;5014381;28;20081;-69
2021/10/12 06:01:35;;;;;;;5.50;4.43;;;;;;;13.52;100.00;99786.06;5014491;28;20022;-69
2021/10/12 06:04:00;;;;;;;9.38;4.20;;;;;;;13.52;100.00;99791.25;5012528;28;20069;-68
2021/10/12 06:06:26;;;;;;;5.85;4.03;;;;;;;13.52;100.00;99786.06;5014053;28;20061;-68
2021/10/12 06:08:51;;;;;;;6.53;3.88;;;;;;;12.96;100.00;99686.75;4979614;28;20034;-68
2021/10/12 06:11:17;;;;;;;4.72;3.90;;;;;;;13.66;100.00;99794.91;5014034;28;20026;-68
2021/10/12 06:13:43;;;;;;;5.82;4.25;;;;;;;13.64;100.00;99803.50;5013725;28;20026;-68
2021/10/12 06:16:09;;;;;;;8.50;7.70;;;;;;;13.61;100.00;99798.28;5014394;28;20460;-68
2021/10/12 06:18:35;;;;;;;4.25;3.47;;;;;;;13.69;100.00;99802.72;5014298;28;20026;-69
2021/10/12 06:23:36;;;;;;;4.53;3.10;;;;;;;13.78;100.00;99814.06;5080377;22;20066;-68
2021/10/12 06:26:02;;;;;;;3.45;2.70;;;;;;;13.78;100.00;99814.94;4994843;28;20144;-68
2021/10/12 06:28:29;;;;;;;3.90;2.22;;;;;;;13.88;100.00;99815.94;4994724;28;20026;-68
2021/10/12 06:30:54;;;;;;;4.03;3.08;;;;;;;13.79;100.00;99792.47;4994492;28;20045;-68
2021/10/12 06:33:20;;;;;;;5.10;3.28;;;;;;;13.79;100.00;99805.44;4994705;28;20473;-68
2021/10/12 06:35:46;;;;;;;8.10;3.40;;;;;;;13.45;100.00;99728.06;4994698;28;20027;-68
2021/10/12 06:38:11;;;;;;;4.40;2.58;;;;;;;13.96;100.00;99810.88;4994308;28;20034;-68
2021/10/12 06:40:37;;;;;;;3.95;2.38;;;;;;;14.07;100.00;99811.88;4994432;28;20023;-68
2021/10/12 06:43:03;;;;;;;7.55;2.88;;;;;;;14.04;100.00;99806.63;4994528;28;20035;-68
2021/10/12 06:45:29;;;;;;;4.45;2.10;;;;;;;13.99;100.00;99801.34;4994142;28;20036;-68
2021/10/12 06:47:55;;;;;;;2.92;2.03;;;;;;;13.73;100.00;99726.69;4994247;28;20054;-69
2021/10/12 06:50:22;;;;;;;3.13;2.20;;;;;;;14.32;100.00;99802.63;4994301;28;20460;-67
2021/10/12 06:52:48;;;;;;;3.35;1.80;;;;;;;14.24;100.00;99815.53;4994248;28;20038;-68
2021/10/12 06:55:15;;;;;;;5.28;3.13;;;;;;;14.35;100.00;99802.63;4994340;28;20022;-68
2021/10/12 06:57:41;;;;;;;5.75;2.75;;;;;;;13.79;100.00;99712.06;4994046;28;20026;-68
2021/10/12 07:00:11;;;;;;;5.28;3.13;;;;;;;14.42;100.00;99808.78;4994258;28;20030;-68
2021/10/12 07:02:36;;;;;;;13.63;11.05;;;;;;;14.49;100.00;99814.91;4993895;28;20488;-68
2021/10/12 07:05:03;;;;;;;28.02;25.52;;;;;;;14.52;100.00;99815.81;4959469;28;20041;-67
2021/10/12 07:07:28;;;;;;;4.95;3.08;;;;;;;14.39;100.00;99791.44;4993954;28;20054;-68
2021/10/12 07:09:54;;;;;;;13.23;7.03;;;;;;;14.56;100.00;99795.94;4993843;28;20057;-68
2021/10/12 07:12:19;;;;;;;12.30;6.80;;;;;;;14.61;100.00;99793.38;4993730;28;20044;-68
2021/10/12 07:14:44;;;;;;;7.43;3.63;;;;;;;14.69;100.00;99792.63;4992644;28;20057;-68
2021/10/12 07:17:10;;;;;;;37.78;17.88;;;;;;;14.64;100.00;99778.72;4993843;28;20113;-68
2021/10/12 07:19:35;;;;;;;11.85;5.00;;;;;;;14.63;100.00;99781.25;4993580;28;20080;-68
2021/10/12 07:22:01;;;;;;;50.10;19.88;;;;;;;14.42;100.00;99746.47;4993596;28;20052;-68
2021/10/12 07:24:27;;;;;;;10.10;4.22;;;;;;;14.59;100.00;99756.97;4993674;28;20023;-69
2021/10/12 07:26:53;;;;;;;47.40;19.00;;;;;;;14.80;100.00;99786.66;5007935;28;20061;-68
2021/10/12 07:29:20;;;;;;;22.35;12.38;;;;;;;14.88;100.00;99793.66;5011363;28;20029;-68
2021/10/12 07:31:46;;;;;;;4.85;2.50;;;;;;;14.97;100.00;99797.22;5012752;28;20037;-68
2021/10/12 07:34:11;;;;;;;14.73;9.55;;;;;;;15.02;100.00;99804.16;5012858;28;20026;-68
2021/10/12 07:36:37;;;;;;;22.50;14.70;;;;;;;15.07;100.00;99808.56;5012442;28;20053;-69
2021/10/12 07:39:05;;;;;;;19.85;11.70;;;;;;;15.07;100.00;99809.41;5012319;28;20026;-68
2021/10/12 07:41:34;;;;;;;11.65;7.55;;;;;;;15.16;100.00;99798.22;5012254;28;20026;-68
2021/10/12 07:44:00;;;;;;;15.90;7.53;;;;;;;15.18;100.00;99799.97;5012162;28;20496;-68
2021/10/12 07:46:26;;;;;;;19.10;10.05;;;;;;;15.19;100.00;99785.25;5009317;28;20041;-69
2021/10/12 07:48:53;;;;;;;41.13;18.80;;;;;;;15.35;100.00;99813.09;5012266;28;20435;-69
2021/10/12 07:51:20;;;;;;;74.93;32.40;;;;;;;15.36;100.00;99822.66;5012261;28;20025;-69
2021/10/12 07:53:45;;;;;;;26.98;11.90;;;;;;;15.41;100.00;99842.59;5003044;28;20030;-68
2021/10/12 07:56:17;;;;;;;38.10;19.52;;;;;;;15.35;100.00;99828.69;4974974;28;20037;-68
2021/10/12 07:58:43;;;;;;;8.30;5.35;;;;;;;15.41;100.00;99824.41;4992539;28;20073;-68
2021/10/12 08:01:09;;;;;;;23.88;15.10;;;;;;;15.27;100.00;99799.16;4992330;28;20042;-69
2021/10/12 08:03:34;;;;;;;17.20;13.13;;;;;;;15.39;100.00;99810.50;4992550;28;20034;-69
2021/10/12 08:06:00;;;;;;;8.25;4.25;;;;;;;15.42;100.00;99815.75;4992422;28;20477;-69
2021/10/12 08:08:25;;;;;;;9.25;7.68;;;;;;;14.86;100.00;99733.00;4992152;28;20489;-68
2021/10/12 08:10:51;;;;;;;11.45;9.60;;;;;;;15.24;100.00;99822.56;4999615;28;20026;-68
2021/10/12 08:13:19;;;;;;;7.85;5.40;;;;;;;15.20;100.00;99820.75;5012040;28;20026;-68
2021/10/12 08:15:51;;;;;;;12.20;10.18;;;;;;;15.07;100.00;99813.75;5011771;28;20025;-68
2021/10/12 08:18:17;;;;;;;9.43;8.43;;;;;;;15.10;100.00;99824.16;5012041;28;20041;-69
2021/10/12 08:20:44;;;;;;;10.20;9.20;;;;;;;14.96;100.00;99801.50;5011875;28;20030;-68
2021/10/12 08:23:09;;;;;;;8.80;7.90;;;;;;;15.06;100.00;99805.06;5011839;28;20057;-69
2021/10/12 08:25:35;;;;;;;9.77;8.77;;;;;;;15.03;100.00;99787.72;5010918;28;20022;-69
2021/10/12 08:28:00;;;;;;;7.15;5.80;;;;;;;15.23;100.00;99810.41;5011445;28;20033;-69
2021/10/12 08:30:26;;;;;;;7.15;4.95;;;;;;;14.98;100.00;99776.41;5011690;28;20105;-69
2021/10/12 08:32:51;;;;;;;7.15;6.28;;;;;;;15.27;100.00;99819.09;5011796;28;20065;-68
2021/10/12 08:35:17;;;;;;;7.50;4.60;;;;;;;15.26;100.00;99804.34;5011475;28;20026;-68
2021/10/12 08:37:43;;;;;;;6.65;4.30;;;;;;;15.22;100.00;99821.66;5011695;28;20053;-68
2021/10/12 08:40:16;;;;;;;7.00;5.30;;;;;;;15.11;100.00;99795.56;5011157;28;20403;-68
2021/10/12 08:42:47;;;;;;;6.88;4.35;;;;;;;15.14;100.00;99797.31;5011226;28;20451;-68
2021/10/12 08:45:14;;;;;;;6.95;4.60;;;;;;;15.01;100.00;99783.38;4992097;28;20026;-69
2021/10/12 08:47:40;;;;;;;7.15;4.63;;;;;;;14.87;100.00;99755.53;5011297;28;20476;-68
2021/10/12 08:50:08;;;;;;;8.27;5.05;;;;;;;15.13;100.00;99787.81;5011443;28;20080;-68
2021/10/12 08:52:34;;;;;;;11.93;10.93;;;;;;;15.09;100.00;99786.91;5011160;28;20034;-68
2021/10/12 08:55:00;;;;;;;5.35;4.85;;;;;;;15.04;100.00;99784.25;5011532;28;20037;-68
2021/10/12 08:57:34;;;;;;;5.10;3.67;;;;;;;15.07;100.00;99779.97;5011471;28;20045;-68
2021/10/12 09:00:04;;;;;;;7.53;4.10;;;;;;;15.23;100.00;99778.31;5011200;28;20404;-68
2021/10/12 09:02:29;;;;;;;5.22;3.13;;;;;;;15.29;100.00;99774.03;5011211;28;20033;-68
2021/10/12 09:04:55;;;;;;;4.53;3.42;;;;;;;15.29;100.00;99775.75;5007215;28;20034;-68
2021/10/12 09:07:23;;;;;;;6.80;4.00;;;;;;;15.31;100.00;99767.09;4993335;28;20036;-69
2021/10/12 09:09:51;;;;;;;5.00;3.88;;;;;;;15.41;100.00;99769.78;4990323;28;20109;-69
2021/10/12 09:12:17;;;;;;;7.07;5.20;;;;;;;15.42;100.00;99763.72;5011170;28;20503;-69
2021/10/12 09:14:59;;;;;;;7.75;5.68;;;;;;;15.31;100.00;99746.28;5011322;28;20123;-69
2021/10/12 09:17:33;;;;;;;7.22;5.30;;;;;;;15.46;100.00;99755.06;5010967;28;20026;-69
2021/10/12 09:20:00;;;;;;;6.28;4.25;;;;;;;15.43;100.00;99750.72;5010975;28;20037;-69
2021/10/12 09:22:26;;;;;;;5.85;4.18;;;;;;;15.47;100.00;99736.00;5010409;28;20037;-69
2021/10/12 09:24:52;;;;;;;6.03;3.30;;;;;;;15.57;100.00;99737.75;5002865;28;20058;-69
2021/10/12 09:27:20;;;;;;;4.10;3.08;;;;;;;15.57;100.00;99732.56;4991526;28;20034;-68
2021/10/12 09:32:11;;;;;;;4.70;3.00;;;;;;;15.47;100.00;99726.44;5010719;28;20122;-68
2021/10/12 09:34:44;;;;;;;5.82;3.92;;;;;;;15.45;100.00;99724.69;4999783;28;20030;-69
2021/10/12 09:37:10;;;;;;;4.47;3.40;;;;;;;15.42;100.00;99724.69;5002024;28;20140;-69
2021/10/12 09:39:46;;;;;;;4.22;3.50;;;;;;;15.04;100.00;99643.00;5004567;28;20105;-69
2021/10/12 09:42:17;;;;;;;4.20;2.83;;;;;;;15.41;100.00;99721.22;5003026;28;20030;-69
2021/10/12 09:44:57;;;;;;;5.32;2.15;;;;;;;15.17;100.00;99691.63;5004043;28;20052;-69
2021/10/12 09:47:23;;;;;;;3.00;2.15;;;;;;;15.19;100.00;99728.91;5015208;28;20037;-69
2021/10/12 09:49:50;;;;;;;3.35;2.33;;;;;;;15.01;100.00;99728.78;5014574;28;20041;-69
2021/10/12 09:52:21;;;;;;;4.70;3.45;;;;;;;14.82;100.00;99707.00;5014786;28;20026;-69
2021/10/12 09:54:48;;;;;;;5.07;3.33;;;;;;;14.89;100.00;99721.75;5007929;28;20033;-69
2021/10/12 09:57:16;;;;;;;2.70;2.08;;;;;;;14.72;100.00;99722.50;4999495;28;20418;-69
2021/10/12 09:59:42;;;;;;;3.33;1.90;;;;;;;14.68;100.00;99722.50;5005138;28;20022;-69
2021/10/12 10:02:12;;;;;;;2.72;2.00;;;;;;;14.70;100.00;99719.03;5003875;28;20093;-69
2021/10/12 10:04:39;;;;;;;;;;;;;;;14.68;100.00;99715.56;5003549;28;20038;-69
2021/10/12 10:07:09;;;;;;;2.88;1.92;;;;;;;14.54;100.00;99711.91;5005755;28;20351;-69
2021/10/12 10:09:36;;;;;;;3.80;1.70;;;;;;;13.64;100.00;99545.00;5013420;28;20028;-68
2021/10/12 10:12:06;;;;;;;3.25;1.90;;;;;;;14.47;100.00;99694.56;5013932;28;20590;-69
2021/10/12 10:14:32;;;;;;;5.53;2.20;;;;;;;14.20;100.00;99647.56;5014328;28;20030;-69
2021/10/12 10:17:00;;;;;;;4.13;2.75;;;;;;;14.56;100.00;99707.63;5013503;28;20026;-69
2021/10/12 10:19:35;;;;;;;5.13;2.00;;;;;;;14.48;100.00;99694.56;5001155;28;20034;-69
2021/10/12 10:22:01;;;;;;;3.28;1.67;;;;;;;14.46;100.00;99696.28;5005167;28;20050;-69
2021/10/12 10:24:43;;;;;;;2.17;1.70;;;;;;;14.50;100.00;99677.25;5004233;28;20042;-69
2021/10/12 10:27:30;;;;;;;2.85;1.88;;;;;;;14.10;100.00;99609.44;5002985;28;20032;-69
2021/10/12 10:30:14;;;;;;;2.33;1.70;;;;;;;14.49;100.00;99672.94;5006597;28;20033;-69
2021/10/12 10:32:57;;;;;;;2.40;1.55;;;;;;;14.05;100.00;99609.38;5008373;28;20032;-69
2021/10/12 10:35:44;;;;;;;2.95;1.63;;;;;;;14.36;100.00;99671.97;5013353;28;20033;-69
2021/10/12 10:38:31;;;;;;;2.97;1.67;;;;;;;14.40;100.00;99676.34;5007898;28;20120;-68
2021/10/12 10:41:03;;;;;;;4.13;1.75;;;;;;;14.37;100.00;99673.69;5004130;28;20037;-68
2021/10/12 10:43:52;;;;;;;2.28;1.50;;;;;;;14.32;100.00;99669.34;5003539;28;20040;-67
2021/10/12 10:46:43;;;;;;;1.75;1.30;;;;;;;14.28;100.00;99663.25;4952299;29;20050;-67
2021/10/12 10:49:10;;;;;;;3.10;1.60;;;;;;;13.74;100.00;99574.50;4913604;29;20036;-71
2021/10/12 10:51:56;;;;;;;2.42;1.45;;;;;;;14.17;100.00;99649.31;4914208;29;20051;-68
2021/10/12 10:54:39;;;;;;;2.85;2.03;;;;;;;14.13;100.00;99640.63;4914332;29;20079;-68
2021/10/12 10:57:19;;;;;;;2.35;1.58;;;;;;;14.19;100.00;99635.47;4914290;29;20173;-68
2021/10/12 10:59:45;;;;;;;2.33;1.45;;;;;;;14.18;100.00;99622.47;4914155;29;20548;-68
2021/10/12 11:02:26;;;;;;;2.97;1.63;;;;;;;14.30;100.00;99627.75;4913134;29;20035;-73
2021/10/12 11:04:52;;;;;;;2.53;1.27;;;;;;;14.20;100.00;99597.41;4911546;29;20046;-71
2021/10/12 11:07:25;;;;;;;2.17;1.25;;;;;;;14.36;100.00;99643.38;4913724;29;20040;-67
2021/10/12 11:09:52;;;;;;;2.00;1.50;;;;;;;14.39;100.00;99613.97;4912962;29;20051;-68
2021/10/12 11:12:23;;;;;;;1.38;1.20;;;;;;;13.86;100.00;99519.28;4913323;29;20043;-70
2021/10/12 11:14:51;;;;;;;1.85;1.42;;;;;;;14.33;100.00;99606.16;4913868;29;20395;-70
2021/10/12 11:17:17;;;;;;;1.58;1.40;;;;;;;14.34;100.00;99598.38;4913157;29;20111;-70
2021/10/12 11:20:00;;;;;;;2.58;1.35;;;;;;;14.31;100.00;99600.09;4913373;29;20060;-69
2021/10/12 11:22:28;;;;;;;1.85;1.30;;;;;;;14.18;100.00;99602.59;4917412;29;20131;-68